Time;durP1;ratioP1;P1;durP2;ratioP2;P2;SDS_P1;SDS_P2;PMS_P1;PMS_P2;Temp;Humidity;BMP_temperature;BMP_pressure;BME280_temperature;BME280_humidity;BME280_pressure;Samples;Min_cycle;Max_cycle;Signal;HPM_P1;HPM_P2
2023/09/08 00:00:37;;;;;;;10.35;5.32;;;;;;;;;;5034699;28;20392;-67
2023/09/08 00:03:03;;;;;;;10.27;5.20;;;;;;;;;;5033218;28;20083;-67
2023/09/08 00:05:28;;;;;;;8.43;5.18;;;;;;;;;;5040577;28;20060;-67
2023/09/08 00:07:53;;;;;;;9.23;5.30;;;;;;;;;;5033441;28;20025;-67
2023/09/08 00:10:18;;;;;;;8.27;5.25;;;;;;;;;;5032944;28;20363;-67
2023/09/08 00:12:43;;;;;;;11.07;5.53;;;;;;;;;;5033223;28;20469;-67
2023/09/08 00:15:09;;;;;;;9.20;5.22;;;;;;;;;;5033463;28;20412;-67
2023/09/08 00:17:36;;;;;;;10.70;5.47;;;;;;;;;;5033879;28;20401;-67
2023/09/08 00:20:04;;;;;;;9.82;5.65;;;;;;;;;;5044604;28;20024;-67
2023/09/08 00:22:30;;;;;;;11.82;5.95;;;;;;;;;;5031110;28;20025;-67
2023/09/08 00:24:55;;;;;;;9.95;5.60;;;;;;;;;;5033382;28;20538;-67
2023/09/08 00:27:20;;;;;;;10.32;5.68;;;;;;;;;;5043758;28;20013;-67
2023/09/08 00:29:45;;;;;;;10.57;5.97;;;;;;;;;;5040088;28;20024;-67
2023/09/08 00:32:11;;;;;;;10.10;5.72;;;;;;;;;;5036796;28;20029;-67
2023/09/08 00:34:36;;;;;;;11.68;6.35;;;;;;;;;;5033064;28;20060;-67
2023/09/08 00:37:06;;;;;;;10.00;6.03;;;;;;;;;;5043907;28;20470;-66
2023/09/08 00:39:32;;;;;;;11.05;5.75;;;;;;;;;;5032792;28;20548;-67
2023/09/08 00:41:57;;;;;;;9.32;5.68;;;;;;;;;;5034029;28;20109;-67
2023/09/08 00:44:22;;;;;;;11.35;5.30;;;;;;;;;;5032623;28;20033;-67
2023/09/08 00:46:47;;;;;;;9.23;5.95;;;;;;;;;;5042491;28;20029;-67
2023/09/08 00:49:13;;;;;;;9.30;6.07;;;;;;;;;;5032655;28;20025;-67
2023/09/08 00:51:38;;;;;;;7.93;5.43;;;;;;;;;;5032537;28;20033;-66
2023/09/08 00:54:04;;;;;;;10.93;6.50;;;;;;;;;;5032381;28;20052;-66
2023/09/08 00:56:29;;;;;;;8.95;5.85;;;;;;;;;;5043696;28;20954;-66
2023/09/08 00:58:54;;;;;;;10.48;5.63;;;;;;;;;;5032478;28;20072;-66
2023/09/08 01:04:23;;;;;;;9.55;6.30;;;;;;;;;;5023021;28;20179;-66
2023/09/08 01:06:49;;;;;;;11.25;6.15;;;;;;;;;;5032749;28;20138;-66
2023/09/08 01:09:14;;;;;;;10.05;5.78;;;;;;;;;;5032963;28;20059;-67
2023/09/08 01:11:39;;;;;;;9.38;5.88;;;;;;;;;;5032732;28;20028;-66
2023/09/08 01:14:04;;;;;;;10.13;5.75;;;;;;;;;;5030814;28;20037;-65
2023/09/08 01:16:30;;;;;;;10.30;6.40;;;;;;;;;;5034924;28;20052;-66
2023/09/08 01:18:56;;;;;;;11.52;6.40;;;;;;;;;;5032641;28;20075;-66
2023/09/08 01:21:21;;;;;;;10.20;6.15;;;;;;;;;;5033023;28;20018;-66
2023/09/08 01:23:46;;;;;;;9.85;6.32;;;;;;;;;;5032207;28;20103;-66
2023/09/08 01:26:16;;;;;;;10.85;6.85;;;;;;;;;;5035128;28;20036;-66
2023/09/08 01:28:42;;;;;;;11.05;6.50;;;;;;;;;;5032571;28;20064;-66
2023/09/08 01:31:08;;;;;;;9.55;6.57;;;;;;;;;;5032765;28;20025;-65
2023/09/08 01:33:33;;;;;;;9.10;6.43;;;;;;;;;;5032785;28;20026;-66
2023/09/08 01:35:58;;;;;;;11.60;6.97;;;;;;;;;;5032557;28;20469;-66
2023/09/08 01:38:24;;;;;;;9.40;6.07;;;;;;;;;;5034543;28;20377;-66
2023/09/08 01:40:49;;;;;;;10.20;6.40;;;;;;;;;;5032599;28;20032;-66
2023/09/08 01:43:15;;;;;;;10.55;6.10;;;;;;;;;;5032724;28;20386;-66
2023/09/08 01:45:40;;;;;;;9.82;6.45;;;;;;;;;;5037442;28;20026;-66
2023/09/08 01:48:05;;;;;;;13.05;6.80;;;;;;;;;;5036367;28;20041;-66
2023/09/08 01:50:30;;;;;;;9.85;6.63;;;;;;;;;;5036524;28;20032;-66
2023/09/08 01:52:56;;;;;;;9.55;6.68;;;;;;;;;;5035620;28;20041;-66
2023/09/08 01:55:21;;;;;;;11.48;6.70;;;;;;;;;;5036244;28;20033;-66
2023/09/08 01:57:46;;;;;;;10.77;6.90;;;;;;;;;;5036291;28;20116;-65
2023/09/08 02:00:12;;;;;;;10.88;7.10;;;;;;;;;;5036295;28;20516;-66
2023/09/08 02:02:37;;;;;;;12.90;7.03;;;;;;;;;;5036472;28;20021;-66
2023/09/08 02:05:03;;;;;;;10.27;6.30;;;;;;;;;;5035569;28;20053;-66
2023/09/08 02:07:28;;;;;;;11.52;7.10;;;;;;;;;;5036451;28;20378;-66
2023/09/08 02:09:54;;;;;;;13.85;7.28;;;;;;;;;;5036013;28;20095;-66
2023/09/08 02:12:19;;;;;;;10.70;6.63;;;;;;;;;;5036350;28;20034;-66
2023/09/08 02:14:44;;;;;;;9.07;6.20;;;;;;;;;;5036139;28;20112;-66
2023/09/08 02:17:09;;;;;;;11.73;7.03;;;;;;;;;;5035663;28;20037;-66
2023/09/08 02:19:35;;;;;;;11.27;7.28;;;;;;;;;;5035386;28;20100;-66
2023/09/08 02:22:00;;;;;;;14.32;7.20;;;;;;;;;;5035675;28;20025;-65
2023/09/08 02:24:25;;;;;;;10.82;7.10;;;;;;;;;;5036271;28;20029;-66
2023/09/08 02:26:50;;;;;;;10.32;6.57;;;;;;;;;;5037393;28;20152;-66
2023/09/08 02:29:16;;;;;;;12.30;7.20;;;;;;;;;;5035910;28;20108;-66
2023/09/08 02:31:41;;;;;;;21.63;7.20;;;;;;;;;;5035529;28;20029;-66
2023/09/08 02:34:06;;;;;;;15.02;7.63;;;;;;;;;;5035734;28;20044;-66
2023/09/08 02:36:31;;;;;;;10.32;6.88;;;;;;;;;;5035045;28;20170;-66
2023/09/08 02:38:57;;;;;;;10.30;6.97;;;;;;;;;;5035733;28;20026;-66
2023/09/08 02:41:23;;;;;;;12.10;7.35;;;;;;;;;;5044704;28;20027;-65
2023/09/08 02:43:48;;;;;;;11.98;7.22;;;;;;;;;;5036526;28;20026;-66
2023/09/08 02:46:13;;;;;;;12.35;7.00;;;;;;;;;;5035337;28;20021;-66
2023/09/08 02:48:39;;;;;;;12.90;7.30;;;;;;;;;;5035426;28;20032;-66
2023/09/08 02:51:04;;;;;;;11.48;7.50;;;;;;;;;;5035503;28;20029;-66
2023/09/08 02:53:30;;;;;;;14.75;7.57;;;;;;;;;;5035610;28;20456;-65
2023/09/08 02:55:55;;;;;;;15.60;7.55;;;;;;;;;;5035093;28;20082;-65
2023/09/08 02:58:21;;;;;;;10.85;6.90;;;;;;;;;;5035550;28;20163;-66
2023/09/08 03:00:46;;;;;;;15.35;7.65;;;;;;;;;;5034913;28;20037;-67
2023/09/08 03:03:11;;;;;;;14.27;7.78;;;;;;;;;;5035392;28;20021;-66
2023/09/08 03:05:37;;;;;;;11.93;7.80;;;;;;;;;;5035089;28;20017;-66
2023/09/08 03:08:02;;;;;;;10.98;7.50;;;;;;;;;;5035242;28;20357;-66
2023/09/08 03:10:28;;;;;;;13.18;7.78;;;;;;;;;;5035771;28;20026;-66
2023/09/08 03:12:54;;;;;;;11.45;7.95;;;;;;;;;;5035132;28;20025;-66
2023/09/08 03:15:19;;;;;;;11.68;7.60;;;;;;;;;;5035316;28;20052;-66
2023/09/08 03:17:44;;;;;;;15.73;8.30;;;;;;;;;;5035041;28;20029;-66
2023/09/08 03:20:10;;;;;;;12.07;7.53;;;;;;;;;;5034836;28;20404;-66
2023/09/08 03:22:35;;;;;;;12.45;8.45;;;;;;;;;;5035179;28;20021;-66
2023/09/08 03:25:01;;;;;;;12.13;7.70;;;;;;;;;;5034868;28;20017;-64
2023/09/08 03:27:26;;;;;;;12.63;7.65;;;;;;;;;;5033903;28;20026;-64
2023/09/08 03:29:51;;;;;;;13.30;7.75;;;;;;;;;;5037562;28;20033;-63
2023/09/08 03:32:16;;;;;;;12.50;8.25;;;;;;;;;;5034903;28;20030;-63
2023/09/08 03:34:41;;;;;;;10.75;7.85;;;;;;;;;;5037095;28;20100;-63
2023/09/08 03:37:07;;;;;;;15.68;8.40;;;;;;;;;;5034377;28;20104;-64
2023/09/08 03:39:32;;;;;;;13.40;8.40;;;;;;;;;;5034750;28;20101;-63
2023/09/08 03:41:57;;;;;;;16.83;8.32;;;;;;;;;;5034407;28;20022;-63
2023/09/08 03:44:22;;;;;;;12.23;8.02;;;;;;;;;;5034353;28;20025;-63
2023/09/08 03:46:48;;;;;;;13.20;8.27;;;;;;;;;;5035037;28;20020;-63
2023/09/08 03:49:13;;;;;;;16.52;8.75;;;;;;;;;;5034717;28;20029;-63
2023/09/08 03:51:39;;;;;;;13.98;8.43;;;;;;;;;;5033792;28;20034;-63
2023/09/08 03:54:05;;;;;;;14.25;8.40;;;;;;;;;;5034993;28;20398;-63
2023/09/08 03:56:31;;;;;;;14.02;8.88;;;;;;;;;;5034047;28;20074;-63
2023/09/08 03:58:56;;;;;;;14.43;8.52;;;;;;;;;;5033569;28;20420;-63
2023/09/08 04:01:21;;;;;;;15.65;8.25;;;;;;;;;;5033709;28;20025;-63
2023/09/08 04:03:46;;;;;;;12.88;9.40;;;;;;;;;;5033837;28;20049;-63
2023/09/08 04:06:11;;;;;;;14.73;8.98;;;;;;;;;;5033058;28;20454;-63
2023/09/08 04:08:37;;;;;;;16.30;9.70;;;;;;;;;;5034038;28;20381;-63
2023/09/08 04:11:02;;;;;;;16.10;9.52;;;;;;;;;;5033130;28;20457;-63
2023/09/08 04:13:27;;;;;;;14.77;9.73;;;;;;;;;;5033970;28;20021;-63
2023/09/08 04:15:53;;;;;;;12.40;9.10;;;;;;;;;;5034089;28;20108;-63
2023/09/08 04:18:18;;;;;;;14.93;9.23;;;;;;;;;;5034221;28;20083;-63
2023/09/08 04:20:43;;;;;;;14.98;9.35;;;;;;;;;;5033713;28;20359;-63
2023/09/08 04:23:08;;;;;;;26.08;11.38;;;;;;;;;;5033851;28;20025;-63
2023/09/08 04:25:34;;;;;;;14.38;9.55;;;;;;;;;;5034101;28;20032;-64
2023/09/08 04:27:59;;;;;;;15.13;10.23;;;;;;;;;;5034004;28;20025;-62
2023/09/08 04:30:25;;;;;;;17.83;10.45;;;;;;;;;;5033984;28;20025;-63
2023/09/08 04:32:50;;;;;;;14.13;10.10;;;;;;;;;;5033676;28;20448;-63
2023/09/08 04:35:15;;;;;;;18.90;9.93;;;;;;;;;;5033981;28;20681;-67
2023/09/08 04:37:40;;;;;;;16.77;10.25;;;;;;;;;;5040012;28;20385;-67
2023/09/08 04:40:07;;;;;;;16.98;10.85;;;;;;;;;;5032790;28;20025;-67
2023/09/08 04:42:32;;;;;;;15.50;10.00;;;;;;;;;;5032693;28;20021;-67
2023/09/08 04:44:57;;;;;;;14.70;10.57;;;;;;;;;;5032313;28;20025;-67
2023/09/08 04:47:23;;;;;;;13.32;9.48;;;;;;;;;;5040883;28;20071;-67
2023/09/08 04:49:48;;;;;;;14.65;10.32;;;;;;;;;;5032047;28;20127;-67
2023/09/08 04:52:14;;;;;;;14.27;9.88;;;;;;;;;;5033057;28;20367;-67
2023/09/08 04:54:39;;;;;;;16.90;10.32;;;;;;;;;;5031642;28;20029;-67
2023/09/08 04:57:05;;;;;;;17.77;10.73;;;;;;;;;;5033211;28;20105;-67
2023/09/08 04:59:30;;;;;;;15.95;10.30;;;;;;;;;;5033415;28;20080;-67
2023/09/08 05:01:55;;;;;;;15.55;9.57;;;;;;;;;;5033465;28;20467;-67
2023/09/08 05:04:20;;;;;;;17.10;10.68;;;;;;;;;;5032953;28;20378;-67
2023/09/08 05:06:46;;;;;;;13.50;9.73;;;;;;;;;;5033202;28;20052;-66
2023/09/08 05:09:12;;;;;;;16.55;10.40;;;;;;;;;;5033317;28;20021;-67
2023/09/08 05:11:37;;;;;;;17.27;10.18;;;;;;;;;;5033014;28;20607;-67
2023/09/08 05:14:03;;;;;;;18.73;10.63;;;;;;;;;;5029118;28;20014;-67
2023/09/08 05:16:46;;;;;;;18.23;10.13;;;;;;;;;;5035342;28;20025;-67
2023/09/08 05:19:12;;;;;;;13.50;9.65;;;;;;;;;;5032857;28;20048;-67
2023/09/08 05:21:37;;;;;;;14.20;9.95;;;;;;;;;;5032936;28;20014;-66
2023/09/08 05:24:03;;;;;;;16.27;8.75;;;;;;;;;;5033517;28;20118;-67
2023/09/08 05:26:28;;;;;;;15.00;9.20;;;;;;;;;;5035199;28;20388;-68
2023/09/08 05:28:53;;;;;;;13.07;8.98;;;;;;;;;;5033086;28;20028;-67
2023/09/08 05:31:19;;;;;;;14.05;9.63;;;;;;;;;;5030758;28;20027;-66
2023/09/08 05:33:44;;;;;;;14.80;9.50;;;;;;;;;;5032469;28;20465;-67
2023/09/08 05:36:09;;;;;;;15.60;10.15;;;;;;;;;;5032654;28;20043;-67
2023/09/08 05:38:34;;;;;;;14.40;9.35;;;;;;;;;;5032625;28;20025;-67
2023/09/08 05:41:00;;;;;;;14.52;9.05;;;;;;;;;;5045076;28;20063;-67
2023/09/08 05:43:25;;;;;;;15.85;9.30;;;;;;;;;;5052650;28;20013;-67
2023/09/08 05:45:50;;;;;;;14.77;8.48;;;;;;;;;;5052986;28;20017;-67
2023/09/08 05:48:15;;;;;;;12.60;8.00;;;;;;;;;;5052725;28;20017;-66
2023/09/08 05:50:41;;;;;;;12.25;7.57;;;;;;;;;;5048929;28;20021;-66
2023/09/08 05:53:06;;;;;;;14.50;7.18;;;;;;;;;;5032765;28;20027;-67
2023/09/08 05:55:31;;;;;;;9.95;6.80;;;;;;;;;;5043795;28;20025;-66
2023/09/08 05:57:56;;;;;;;16.23;6.93;;;;;;;;;;5035095;28;20025;-66
2023/09/08 06:00:22;;;;;;;11.25;6.90;;;;;;;;;;5032930;28;20022;-66
2023/09/08 06:02:47;;;;;;;12.50;6.90;;;;;;;;;;5031599;28;20439;-66
2023/09/08 06:05:13;;;;;;;10.43;6.75;;;;;;;;;;5032455;28;20041;-66
2023/09/08 06:07:38;;;;;;;13.20;7.00;;;;;;;;;;5032728;28;20044;-66
2023/09/08 06:10:03;;;;;;;12.45;6.70;;;;;;;;;;5032846;28;20080;-66
2023/09/08 06:12:29;;;;;;;12.07;6.70;;;;;;;;;;5032631;28;20029;-66
2023/09/08 06:14:54;;;;;;;11.07;6.10;;;;;;;;;;5032228;28;20033;-67
2023/09/08 06:17:19;;;;;;;10.68;6.28;;;;;;;;;;5032566;28;20022;-66
2023/09/08 06:19:44;;;;;;;12.30;6.55;;;;;;;;;;5032743;28;20037;-67
2023/09/08 06:22:09;;;;;;;9.82;6.30;;;;;;;;;;5032824;28;20021;-67
2023/09/08 06:24:35;;;;;;;12.25;6.50;;;;;;;;;;5032524;28;20359;-67
2023/09/08 06:27:01;;;;;;;14.02;6.68;;;;;;;;;;5032430;28;20458;-67
2023/09/08 06:29:26;;;;;;;11.15;6.38;;;;;;;;;;5032797;28;20025;-67
2023/09/08 06:31:51;;;;;;;11.65;6.43;;;;;;;;;;5039130;28;20025;-67
2023/09/08 06:34:16;;;;;;;11.60;6.65;;;;;;;;;;5055904;28;20021;-67
2023/09/08 06:36:42;;;;;;;11.63;6.28;;;;;;;;;;5056077;28;20025;-67
2023/09/08 06:39:07;;;;;;;13.52;6.32;;;;;;;;;;5056025;28;20017;-67
2023/09/08 06:41:32;;;;;;;14.25;6.13;;;;;;;;;;5056096;28;20487;-68
2023/09/08 06:43:57;;;;;;;10.40;6.15;;;;;;;;;;5055762;28;20056;-67
2023/09/08 06:46:23;;;;;;;10.13;6.20;;;;;;;;;;5049299;28;20022;-67
2023/09/08 06:48:48;;;;;;;11.40;6.10;;;;;;;;;;5036016;28;20030;-67
2023/09/08 06:51:14;;;;;;;11.25;6.47;;;;;;;;;;5036041;28;20031;-67
2023/09/08 06:53:39;;;;;;;10.85;6.25;;;;;;;;;;5035825;28;20036;-67
2023/09/08 06:56:04;;;;;;;12.93;6.10;;;;;;;;;;5035983;28;20030;-67
2023/09/08 06:58:29;;;;;;;8.43;6.10;;;;;;;;;;5036240;28;20017;-67
2023/09/08 07:00:54;;;;;;;9.70;5.80;;;;;;;;;;5035633;28;20100;-67
2023/09/08 07:03:21;;;;;;;8.68;5.65;;;;;;;;;;5035269;28;20071;-67
2023/09/08 07:05:46;;;;;;;10.90;6.22;;;;;;;;;;5035631;28;20067;-67
2023/09/08 07:08:12;;;;;;;8.38;5.50;;;;;;;;;;5035455;28;20457;-67
2023/09/08 07:10:37;;;;;;;9.52;5.75;;;;;;;;;;5038097;28;20366;-68
2023/09/08 07:13:03;;;;;;;13.27;6.22;;;;;;;;;;5035278;28;20385;-68
2023/09/08 07:15:29;;;;;;;9.27;5.50;;;;;;;;;;5035409;28;20408;-67
2023/09/08 07:17:55;;;;;;;10.98;5.40;;;;;;;;;;5037836;28;20096;-68
2023/09/08 07:20:20;;;;;;;9.55;5.05;;;;;;;;;;5035284;28;20018;-68
2023/09/08 07:22:46;;;;;;;8.60;4.97;;;;;;;;;;5035119;28;20069;-68
2023/09/08 07:25:12;;;;;;;8.32;5.07;;;;;;;;;;5034336;28;20009;-69
2023/09/08 07:27:37;;;;;;;11.07;4.97;;;;;;;;;;5035331;28;20026;-68
2023/09/08 07:30:02;;;;;;;9.55;4.85;;;;;;;;;;5035250;28;20386;-69
2023/09/08 07:32:28;;;;;;;7.07;4.55;;;;;;;;;;5035180;28;20485;-69
2023/09/08 07:34:54;;;;;;;6.82;4.30;;;;;;;;;;5035120;28;20022;-69
2023/09/08 07:37:23;;;;;;;7.07;4.20;;;;;;;;;;5035145;28;20482;-69
2023/09/08 07:39:49;;;;;;;6.65;4.13;;;;;;;;;;5034811;28;20422;-69
2023/09/08 07:42:14;;;;;;;8.32;4.28;;;;;;;;;;5033706;28;20052;-70
2023/09/08 07:44:39;;;;;;;7.60;4.45;;;;;;;;;;5037240;28;20029;-70
2023/09/08 07:47:04;;;;;;;7.88;3.95;;;;;;;;;;5034541;28;20068;-69
2023/09/08 07:49:30;;;;;;;7.00;4.13;;;;;;;;;;5034507;28;20021;-70
2023/09/08 07:51:55;;;;;;;7.28;4.20;;;;;;;;;;5034004;28;20025;-70
2023/09/08 07:54:20;;;;;;;6.43;3.95;;;;;;;;;;5036954;28;20465;-69
2023/09/08 07:56:45;;;;;;;10.68;3.97;;;;;;;;;;5046631;28;20024;-69
2023/09/08 07:59:11;;;;;;;10.95;4.75;;;;;;;;;;5034569;28;20021;-69
2023/09/08 08:01:36;;;;;;;7.65;4.03;;;;;;;;;;5034408;28;20020;-71
2023/09/08 08:04:03;;;;;;;8.68;3.78;;;;;;;;;;5034101;28;20080;-71
2023/09/08 08:06:28;;;;;;;8.77;3.78;;;;;;;;;;5035536;28;20064;-70
2023/09/08 08:08:53;;;;;;;8.00;3.78;;;;;;;;;;5036741;28;20398;-70
2023/09/08 08:11:19;;;;;;;10.10;4.15;;;;;;;;;;5034831;28;20024;-70
2023/09/08 08:13:45;;;;;;;7.60;3.30;;;;;;;;;;5034312;28;20101;-70
2023/09/08 08:16:11;;;;;;;6.25;3.50;;;;;;;;;;5034848;28;20032;-61
2023/09/08 08:18:36;;;;;;;5.88;3.50;;;;;;;;;;5034139;28;20385;-62
2023/09/08 08:21:03;;;;;;;9.20;3.63;;;;;;;;;;5034336;28;20091;-61
2023/09/08 08:23:28;;;;;;;8.80;3.95;;;;;;;;;;5034120;28;20014;-60
2023/09/08 08:25:54;;;;;;;8.05;3.60;;;;;;;;;;5034985;28;20378;-61
2023/09/08 08:28:19;;;;;;;9.52;3.50;;;;;;;;;;5033808;28;20493;-61
2023/09/08 08:30:45;;;;;;;6.65;3.72;;;;;;;;;;5033708;28;20036;-62
2023/09/08 08:33:11;;;;;;;5.97;3.50;;;;;;;;;;5050275;28;20420;-61
2023/09/08 08:35:36;;;;;;;7.82;3.83;;;;;;;;;;5053595;28;20083;-62
2023/09/08 08:38:01;;;;;;;10.70;3.70;;;;;;;;;;5053770;28;20079;-62
2023/09/08 08:40:27;;;;;;;8.13;3.60;;;;;;;;;;5053411;28;20025;-63
2023/09/08 08:42:58;;;;;;;5.78;3.75;;;;;;;;;;5053618;28;20017;-62
2023/09/08 08:45:24;;;;;;;7.63;3.70;;;;;;;;;;5053525;28;20028;-62
2023/09/08 08:47:50;;;;;;;7.38;3.53;;;;;;;;;;5053478;28;20021;-63
2023/09/08 08:50:17;;;;;;;6.38;3.88;;;;;;;;;;5053826;28;20108;-62
2023/09/08 08:52:42;;;;;;;6.13;3.50;;;;;;;;;;5053038;28;20092;-62
2023/09/08 08:55:08;;;;;;;6.40;3.65;;;;;;;;;;5038876;28;20044;-63
2023/09/08 08:57:33;;;;;;;5.22;3.30;;;;;;;;;;5033788;28;20369;-62
2023/09/08 08:59:59;;;;;;;7.85;3.63;;;;;;;;;;5033680;28;20025;-62
2023/09/08 09:02:25;;;;;;;6.20;3.50;;;;;;;;;;5033348;28;20156;-62
2023/09/08 09:04:51;;;;;;;6.13;3.75;;;;;;;;;;5033057;28;20056;-61
2023/09/08 09:07:18;;;;;;;13.68;3.63;;;;;;;;;;5033342;28;20018;-62
2023/09/08 09:09:43;;;;;;;8.82;3.50;;;;;;;;;;5029453;28;20057;-63
2023/09/08 09:12:08;;;;;;;7.97;3.30;;;;;;;;;;5035837;28;20106;-62
2023/09/08 09:14:34;;;;;;;6.47;3.47;;;;;;;;;;5027498;28;20018;-62
2023/09/08 09:17:01;;;;;;;8.23;3.38;;;;;;;;;;5052515;28;20030;-71
2023/09/08 09:19:31;;;;;;;5.63;3.33;;;;;;;;;;5055098;28;20077;-69
2023/09/08 09:21:57;;;;;;;8.63;3.50;;;;;;;;;;5043434;28;20057;-69
2023/09/08 09:24:30;;;;;;;7.45;3.40;;;;;;;;;;5055893;28;20006;-68
2023/09/08 09:26:55;;;;;;;11.25;3.58;;;;;;;;;;5052438;28;20029;-63
2023/09/08 09:29:21;;;;;;;6.38;3.80;;;;;;;;;;5032166;28;20025;-64
2023/09/08 09:32:05;;;;;;;7.60;3.25;;;;;;;;;;5032325;28;20421;-63
2023/09/08 09:34:31;;;;;;;9.02;3.00;;;;;;;;;;5022634;28;20385;-64
2023/09/08 09:36:56;;;;;;;10.65;3.28;;;;;;;;;;5031948;28;20025;-63
2023/09/08 09:39:23;;;;;;;8.20;3.10;;;;;;;;;;5045234;28;20025;-64
2023/09/08 09:41:49;;;;;;;9.82;3.08;;;;;;;;;;5043013;28;20368;-63
2023/09/08 09:44:15;;;;;;;6.38;3.00;;;;;;;;;;5035765;28;20108;-64
2023/09/08 09:46:46;;;;;;;7.90;3.00;;;;;;;;;;5034247;28;20055;-65
2023/09/08 09:49:13;;;;;;;13.05;3.53;;;;;;;;;;5052987;28;20431;-64
2023/09/08 09:51:45;;;;;;;6.28;2.85;;;;;;;;;;5052795;28;20025;-64
2023/09/08 09:54:11;;;;;;;7.13;3.35;;;;;;;;;;5052520;28;20025;-64
2023/09/08 09:56:37;;;;;;;7.35;2.88;;;;;;;;;;5047209;28;20013;-64
2023/09/08 09:59:03;;;;;;;6.82;3.25;;;;;;;;;;5034686;28;20028;-62
2023/09/08 10:01:29;;;;;;;7.45;2.95;;;;;;;;;;5036340;28;20021;-67
2023/09/08 10:03:55;;;;;;;6.00;3.15;;;;;;;;;;5042201;28;20129;-69
2023/09/08 10:06:20;;;;;;;6.13;2.80;;;;;;;;;;5059846;28;20024;-69
2023/09/08 10:08:46;;;;;;;4.40;2.72;;;;;;;;;;5053271;28;20032;-66
2023/09/08 10:11:12;;;;;;;7.85;3.00;;;;;;;;;;5050506;28;20051;-65
2023/09/08 10:13:39;;;;;;;6.22;3.00;;;;;;;;;;5053289;28;20028;-63
2023/09/08 10:16:05;;;;;;;8.48;3.30;;;;;;;;;;5056969;28;20013;-67
2023/09/08 10:18:31;;;;;;;6.65;3.00;;;;;;;;;;5054613;28;20029;-68
2023/09/08 10:20:59;;;;;;;8.40;3.17;;;;;;;;;;5059029;28;20025;-67
2023/09/08 10:23:47;;;;;;;6.57;2.83;;;;;;;;;;5045656;28;20073;-64
2023/09/08 10:26:16;;;;;;;5.93;2.83;;;;;;;;;;5019389;28;20030;-67
2023/09/08 10:28:41;;;;;;;6.30;3.25;;;;;;;;;;5017577;28;20038;-69
2023/09/08 10:31:07;;;;;;;7.78;3.28;;;;;;;;;;5031873;28;20044;-66
2023/09/08 10:33:33;;;;;;;4.45;2.70;;;;;;;;;;5036449;28;20029;-65
2023/09/08 10:35:59;;;;;;;6.30;3.08;;;;;;;;;;5026975;28;20121;-71
2023/09/08 10:38:25;;;;;;;8.00;2.88;;;;;;;;;;5014649;28;20559;-71
2023/09/08 10:40:51;;;;;;;6.55;3.30;;;;;;;;;;5017078;28;20034;-71
2023/09/08 10:43:18;;;;;;;8.48;3.10;;;;;;;;;;5013900;28;20088;-71
2023/09/08 10:45:43;;;;;;;6.50;3.30;;;;;;;;;;5014119;28;20025;-71
2023/09/08 10:48:09;;;;;;;5.13;3.22;;;;;;;;;;5024842;28;20021;-68
2023/09/08 10:50:35;;;;;;;9.38;3.67;;;;;;;;;;5011921;28;20045;-72
2023/09/08 10:53:04;;;;;;;9.65;3.30;;;;;;;;;;4994152;28;20161;-71
2023/09/08 10:55:53;;;;;;;9.18;3.20;;;;;;;;;;5002397;28;20029;-71
2023/09/08 10:58:29;;;;;;;8.77;3.50;;;;;;;;;;4994604;28;20022;-71
2023/09/08 11:00:59;;;;;;;10.88;4.15;;;;;;;;;;5035064;28;20034;-70
2023/09/08 11:03:26;;;;;;;8.60;3.30;;;;;;;;;;5054873;28;20020;-69
2023/09/08 11:05:51;;;;;;;5.55;3.25;;;;;;;;;;5060491;28;20014;-72
2023/09/08 11:08:18;;;;;;;7.15;3.40;;;;;;;;;;5060454;28;20077;-69
2023/09/08 11:10:44;;;;;;;5.22;3.28;;;;;;;;;;5060032;28;20032;-64
2023/09/08 11:13:09;;;;;;;8.20;3.20;;;;;;;;;;5060353;28;20065;-69
2023/09/08 11:15:35;;;;;;;7.85;3.25;;;;;;;;;;5060107;28;20033;-70
2023/09/08 11:18:04;;;;;;;11.35;4.00;;;;;;;;;;5060227;28;20013;-69
2023/09/08 11:20:29;;;;;;;5.63;3.05;;;;;;;;;;5040353;28;20485;-70
2023/09/08 11:22:55;;;;;;;10.52;3.75;;;;;;;;;;5036462;28;20017;-70
2023/09/08 11:25:20;;;;;;;6.88;3.45;;;;;;;;;;5037051;28;20020;-70
2023/09/08 11:27:46;;;;;;;7.47;3.25;;;;;;;;;;5036205;28;20025;-70
2023/09/08 11:30:12;;;;;;;5.88;2.95;;;;;;;;;;5036187;28;20474;-69
2023/09/08 11:32:37;;;;;;;8.40;3.10;;;;;;;;;;5038706;28;20419;-69
2023/09/08 11:35:13;;;;;;;5.13;3.20;;;;;;;;;;5038344;28;20159;-70
2023/09/08 11:37:39;;;;;;;7.38;3.15;;;;;;;;;;5044047;28;20037;-69
2023/09/08 11:40:14;;;;;;;4.70;3.03;;;;;;;;;;5040699;28;20025;-69
2023/09/08 11:42:46;;;;;;;5.10;2.78;;;;;;;;;;5016185;28;20049;-70
2023/09/08 11:45:17;;;;;;;5.47;2.92;;;;;;;;;;5030831;28;20505;-67
2023/09/08 11:47:43;;;;;;;5.43;2.80;;;;;;;;;;5030451;28;20095;-64
2023/09/08 11:50:15;;;;;;;5.40;2.58;;;;;;;;;;5034490;28;20036;-69
2023/09/08 11:52:41;;;;;;;5.93;2.40;;;;;;;;;;5033192;28;20029;-66
2023/09/08 11:55:06;;;;;;;5.13;2.85;;;;;;;;;;5034605;28;20021;-72
2023/09/08 11:57:32;;;;;;;5.15;2.72;;;;;;;;;;5029847;28;20489;-67
2023/09/08 11:59:57;;;;;;;5.18;2.70;;;;;;;;;;5025480;28;20381;-66
2023/09/08 12:02:23;;;;;;;5.85;2.70;;;;;;;;;;5023700;28;20068;-65
2023/09/08 12:04:48;;;;;;;5.35;2.50;;;;;;;;;;5023891;28;20049;-69
2023/09/08 12:07:16;;;;;;;5.53;2.45;;;;;;;;;;5026180;28;20051;-66
2023/09/08 12:09:41;;;;;;;3.97;2.28;;;;;;;;;;5022494;28;20037;-70
2023/09/08 12:12:10;;;;;;;4.30;2.28;;;;;;;;;;5044335;28;20477;-69
2023/09/08 12:14:40;;;;;;;8.02;2.65;;;;;;;;;;5043468;28;20071;-71
2023/09/08 12:17:07;;;;;;;4.47;2.30;;;;;;;;;;5037074;28;20381;-68
2023/09/08 12:19:32;;;;;;;7.93;2.33;;;;;;;;;;5034106;28;20047;-70
2023/09/08 12:22:00;;;;;;;3.90;2.20;;;;;;;;;;5037747;28;20462;-70
2023/09/08 12:24:44;;;;;;;6.20;2.17;;;;;;;;;;5033502;28;20501;-68
2023/09/08 12:27:09;;;;;;;4.07;2.17;;;;;;;;;;5044772;28;20022;-70
2023/09/08 12:29:34;;;;;;;6.03;2.25;;;;;;;;;;5033733;28;20105;-71
2023/09/08 12:32:01;;;;;;;5.30;2.30;;;;;;;;;;5044244;28;20021;-71
2023/09/08 12:34:27;;;;;;;4.53;2.30;;;;;;;;;;5033733;28;20461;-68
2023/09/08 12:36:54;;;;;;;7.28;2.20;;;;;;;;;;5049519;28;20024;-71
2023/09/08 12:39:20;;;;;;;6.15;2.05;;;;;;;;;;5038773;28;20503;-70
2023/09/08 12:41:45;;;;;;;6.73;2.03;;;;;;;;;;5039301;28;20025;-71
2023/09/08 12:44:10;;;;;;;9.05;2.30;;;;;;;;;;5045018;28;20260;-68
2023/09/08 12:46:36;;;;;;;4.68;2.20;;;;;;;;;;5036540;28;21014;-70
2023/09/08 12:49:01;;;;;;;4.10;1.90;;;;;;;;;;5044819;28;20536;-67
2023/09/08 12:51:26;;;;;;;12.32;2.67;;;;;;;;;;5043043;28;20017;-68
2023/09/08 12:53:51;;;;;;;3.83;1.90;;;;;;;;;;5040093;28;20074;-70
2023/09/08 12:56:18;;;;;;;8.13;2.20;;;;;;;;;;5042510;28;20333;-68
2023/09/08 12:58:43;;;;;;;6.05;2.22;;;;;;;;;;5044370;28;20283;-68
2023/09/08 13:01:08;;;;;;;6.20;2.13;;;;;;;;;;5033532;28;20029;-71
2023/09/08 13:03:33;;;;;;;4.37;2.10;;;;;;;;;;5036685;28;20641;-76
2023/09/08 13:05:58;;;;;;;4.38;2.42;;;;;;;;;;5033649;28;20668;-72
2023/09/08 13:08:24;;;;;;;5.47;2.30;;;;;;;;;;5035435;28;20038;-75
2023/09/08 13:10:49;;;;;;;7.78;2.30;;;;;;;;;;5031979;28;20272;-73
2023/09/08 13:13:14;;;;;;;5.83;2.13;;;;;;;;;;5032018;28;20028;-72
2023/09/08 13:15:39;;;;;;;3.97;2.00;;;;;;;;;;5038045;28;20268;-68
2023/09/08 13:18:05;;;;;;;6.05;2.08;;;;;;;;;;5038766;28;20539;-67
2023/09/08 13:20:30;;;;;;;5.65;2.40;;;;;;;;;;5035715;28;20413;-71
2023/09/08 13:22:55;;;;;;;4.63;2.30;;;;;;;;;;5033409;28;20106;-72
2023/09/08 13:25:20;;;;;;;4.38;2.20;;;;;;;;;;5030268;28;20481;-75
2023/09/08 13:27:47;;;;;;;4.65;1.92;;;;;;;;;;5033323;28;20048;-75
2023/09/08 13:30:13;;;;;;;5.15;2.40;;;;;;;;;;5035930;28;20481;-74
2023/09/08 13:32:38;;;;;;;5.20;2.22;;;;;;;;;;5048468;28;20098;-75
2023/09/08 13:35:04;;;;;;;6.07;2.15;;;;;;;;;;5035248;28;20021;-78
2023/09/08 13:37:30;;;;;;;5.68;2.17;;;;;;;;;;5034658;28;20472;-74
2023/09/08 13:39:56;;;;;;;4.93;2.40;;;;;;;;;;5036237;28;20033;-73
2023/09/08 13:42:21;;;;;;;3.83;2.00;;;;;;;;;;5039533;28;20032;-75
2023/09/08 13:44:46;;;;;;;5.53;2.20;;;;;;;;;;5035288;28;20048;-75
2023/09/08 13:47:12;;;;;;;5.50;2.60;;;;;;;;;;5037660;28;20017;-71
2023/09/08 13:49:37;;;;;;;6.28;2.97;;;;;;;;;;5039306;28;20263;-76
2023/09/08 13:52:03;;;;;;;6.57;2.72;;;;;;;;;;5043912;28;20029;-71
2023/09/08 13:54:28;;;;;;;4.47;2.08;;;;;;;;;;5044679;28;20036;-75
2023/09/08 13:57:00;;;;;;;3.72;2.13;;;;;;;;;;5045518;28;20078;-68
2023/09/08 13:59:28;;;;;;;5.35;2.42;;;;;;;;;;5057058;28;20110;-74
2023/09/08 14:01:53;;;;;;;6.38;2.35;;;;;;;;;;5057021;28;20095;-73
2023/09/08 14:04:19;;;;;;;3.58;2.08;;;;;;;;;;5054990;28;20087;-69
2023/09/08 14:06:44;;;;;;;5.22;2.47;;;;;;;;;;5041877;28;20028;-75
2023/09/08 14:09:09;;;;;;;4.00;2.30;;;;;;;;;;5036740;28;20107;-75
2023/09/08 14:11:34;;;;;;;4.97;2.47;;;;;;;;;;5036111;28;20291;-74
2023/09/08 14:14:00;;;;;;;7.10;2.60;;;;;;;;;;5036849;28;20283;-76
2023/09/08 14:16:25;;;;;;;7.00;2.38;;;;;;;;;;5047363;28;20029;-74
2023/09/08 14:18:50;;;;;;;4.53;2.20;;;;;;;;;;5052038;28;20028;-76
2023/09/08 14:21:15;;;;;;;6.68;2.35;;;;;;;;;;5056430;28;20025;-76
2023/09/08 14:23:41;;;;;;;5.45;2.40;;;;;;;;;;5038375;28;20053;-76
2023/09/08 14:26:07;;;;;;;5.93;2.40;;;;;;;;;;5041822;28;20027;-79
2023/09/08 14:28:32;;;;;;;7.95;2.28;;;;;;;;;;5042002;28;20049;-77
2023/09/08 14:30:57;;;;;;;5.15;2.20;;;;;;;;;;5041167;28;20119;-79